New Hope, Mississippi
Current Conditions -  °F | °C
As of 12:50 PM on Sunday 23 Nov 2014 (Local Time) from KGTR Reporting Station
Broken Clouds Broken Clouds  
Wind Chill: 64°   Ceiling: 800
Heat Index: 64°   Visibility: 7mi
Dew Point: 63°   Wind: 14mph
Humidity: 94%   Direction: 160°SSE
Pressure: 29.47"   Gusts: 21mph
Location:  33.455°N, 88.5512°W
Report Text: KGTR 231850Z 16012G18KT 7SM BKN008 BK015 18/17 A2947
Loading
Personal Weather Stations






























Interactive Weather Map New forecast layout! Learn more

10-Day Weather Forecast

Advertisements
Track Severe Weather on mobile